createdAt,value
2023-02-11T00:01:32.687Z,8.02
2023-02-11T00:04:01.971Z,8.15
2023-02-11T00:06:31.412Z,8.98
2023-02-11T00:09:01.343Z,8.43
2023-02-11T00:11:32.794Z,7.80
2023-02-11T00:14:02.902Z,8.50
2023-02-11T00:16:32.596Z,8.13
2023-02-11T00:19:01.180Z,8.25
2023-02-11T00:21:29.854Z,8.85
2023-02-11T00:24:00.224Z,8.20
2023-02-11T00:26:32.419Z,8.05
2023-02-11T00:29:01.659Z,8.57
2023-02-11T00:31:32.534Z,8.85
2023-02-11T00:34:00.588Z,8.13
2023-02-11T00:36:29.766Z,8.27
2023-02-11T00:38:58.516Z,8.30
2023-02-11T00:41:28.504Z,8.75
2023-02-11T00:43:56.440Z,6.97
2023-02-11T00:46:24.623Z,7.88
2023-02-11T00:48:55.221Z,9.18
2023-02-11T00:51:23.718Z,9.85
2023-02-11T00:53:51.572Z,11.90
2023-02-11T00:56:19.264Z,13.88
2023-02-11T00:58:47.506Z,13.25
2023-02-11T01:01:15.586Z,12.35
2023-02-11T01:03:44.016Z,11.23
2023-02-11T01:06:12.016Z,9.80
2023-02-11T01:08:40.224Z,9.70
2023-02-11T01:11:14.827Z,8.43
2023-02-11T01:13:46.897Z,8.30
2023-02-11T01:16:16.619Z,7.65
2023-02-11T01:18:46.385Z,7.38
2023-02-11T01:21:14.961Z,7.80
2023-02-11T01:23:44.336Z,8.05
2023-02-11T01:26:12.904Z,8.38
2023-02-11T01:28:40.835Z,8.60
2023-02-11T01:31:08.897Z,8.55
2023-02-11T01:33:36.817Z,8.35
2023-02-11T01:36:08.510Z,8.55
2023-02-11T01:38:36.758Z,9.27
2023-02-11T01:41:07.245Z,9.45
2023-02-11T01:43:42.174Z,10.05
2023-02-11T01:46:31.964Z,9.70
2023-02-11T01:49:06.391Z,9.90
2023-02-11T01:51:37.402Z,9.27
2023-02-11T01:54:27.285Z,10.32
2023-02-11T01:57:17.963Z,9.27
2023-02-11T01:59:57.410Z,9.43
2023-02-11T02:02:53.006Z,9.13
2023-02-11T02:05:43.370Z,9.20
2023-02-11T02:08:14.302Z,9.35
2023-02-11T02:10:45.250Z,8.98
2023-02-11T02:13:13.219Z,9.07
2023-02-11T02:15:55.267Z,8.52
2023-02-11T02:18:42.713Z,8.27
2023-02-11T02:24:21.193Z,7.78
2023-02-11T02:27:01.254Z,7.00
2023-02-11T02:30:02.520Z,7.45
2023-02-11T02:32:39.442Z,7.00
2023-02-11T02:35:29.757Z,7.28
2023-02-11T02:38:00.429Z,6.90
2023-02-11T02:40:40.764Z,7.20
2023-02-11T02:43:10.539Z,6.70
2023-02-11T02:45:38.251Z,6.65
2023-02-11T02:48:07.394Z,6.47
2023-02-11T02:50:37.870Z,6.60
2023-02-11T02:53:31.387Z,6.55
2023-02-11T02:56:02.186Z,7.10
2023-02-11T02:58:38.951Z,6.35
2023-02-11T03:01:28.757Z,7.03
2023-02-11T03:04:21.832Z,7.50
2023-02-11T03:07:04.317Z,8.23
2023-02-11T03:09:55.300Z,10.38
2023-02-11T03:12:25.253Z,10.98
2023-02-11T03:14:53.156Z,12.85
2023-02-11T03:17:22.095Z,13.02
2023-02-11T03:19:51.296Z,12.52
2023-02-11T03:22:35.212Z,12.23
2023-02-11T03:25:03.696Z,10.27
2023-02-11T03:27:40.854Z,9.65
2023-02-11T03:30:18.562Z,9.88
2023-02-11T03:33:30.558Z,9.68
2023-02-11T03:36:09.112Z,9.52
2023-02-11T03:38:44.837Z,8.95
2023-02-11T03:41:16.496Z,8.23
2023-02-11T03:43:52.543Z,8.15
2023-02-11T03:46:26.136Z,8.02
2023-02-11T03:48:59.484Z,7.95
2023-02-11T03:51:30.519Z,6.72
2023-02-11T03:54:01.531Z,7.30
2023-02-11T03:56:33.375Z,6.88
2023-02-11T03:59:01.568Z,7.05
2023-02-11T04:01:29.609Z,6.97
2023-02-11T04:03:57.348Z,6.40
2023-02-11T04:06:25.463Z,6.60
2023-02-11T04:08:53.365Z,6.80
2023-02-11T04:11:21.229Z,7.00
2023-02-11T04:13:49.035Z,6.65
2023-02-11T04:16:16.853Z,7.10
2023-02-11T04:18:44.704Z,7.07
2023-02-11T04:21:12.629Z,7.13
2023-02-11T04:23:40.342Z,6.22
2023-02-11T04:26:08.265Z,6.38
2023-02-11T04:28:36.646Z,6.07
2023-02-11T04:31:04.772Z,6.25
2023-02-11T04:33:32.978Z,6.15
2023-02-11T04:36:00.831Z,6.18
2023-02-11T04:38:28.575Z,6.30
2023-02-11T04:40:58.309Z,6.20
2023-02-11T04:43:26.575Z,6.30
2023-02-11T04:45:58.784Z,6.20
2023-02-11T04:48:27.243Z,5.70
2023-02-11T04:50:55.267Z,6.22
2023-02-11T04:53:24.041Z,6.20
2023-02-11T04:55:53.092Z,5.82
2023-02-11T04:58:21.397Z,5.72
2023-02-11T05:00:49.092Z,5.93
2023-02-11T05:03:17.272Z,6.28
2023-02-11T05:05:45.097Z,5.90
2023-02-11T05:08:13.564Z,6.35
2023-02-11T05:10:45.828Z,6.38
2023-02-11T05:13:13.685Z,6.10
2023-02-11T05:15:41.816Z,6.32
2023-02-11T05:18:10.784Z,6.28
2023-02-11T05:20:39.593Z,6.45
2023-02-11T05:23:07.485Z,5.70
2023-02-11T05:25:35.535Z,6.38
2023-02-11T05:28:05.815Z,6.57
2023-02-11T05:30:34.091Z,6.13
2023-02-11T05:33:01.829Z,6.28
2023-02-11T05:35:29.612Z,6.00
2023-02-11T05:37:57.475Z,6.68
2023-02-11T05:40:25.122Z,6.47
2023-02-11T05:42:53.065Z,6.60
2023-02-11T05:45:20.815Z,6.90
2023-02-11T05:47:48.801Z,6.65
2023-02-11T05:50:16.670Z,6.68
2023-02-11T05:52:45.001Z,6.20
2023-02-11T05:55:12.792Z,6.75
2023-02-11T05:57:40.678Z,6.80
2023-02-11T06:00:09.512Z,6.68
2023-02-11T06:02:43.318Z,6.63
2023-02-11T06:05:10.996Z,6.45
2023-02-11T06:07:39.098Z,6.63
2023-02-11T06:10:07.664Z,6.40
2023-02-11T06:12:37.076Z,6.57
2023-02-11T06:15:06.471Z,6.35
2023-02-11T06:17:34.352Z,5.75
2023-02-11T06:20:03.260Z,6.60
2023-02-11T06:22:31.537Z,6.63
2023-02-11T06:25:02.112Z,6.18
2023-02-11T06:27:31.512Z,6.15
2023-02-11T06:29:59.965Z,6.38
2023-02-11T06:32:43.431Z,6.22
2023-02-11T06:35:12.693Z,6.43
2023-02-11T06:37:41.890Z,5.90
2023-02-11T06:40:11.848Z,6.38
2023-02-11T06:42:39.812Z,6.80
2023-02-11T06:45:10.894Z,6.22
2023-02-11T06:47:42.398Z,7.47
2023-02-11T06:50:14.037Z,7.05
2023-02-11T06:52:41.898Z,7.10
2023-02-11T06:55:09.978Z,7.18
2023-02-11T06:57:38.135Z,8.07
2023-02-11T07:00:06.836Z,7.15
2023-02-11T07:02:34.796Z,7.45
2023-02-11T07:05:02.764Z,7.05
2023-02-11T07:07:34.278Z,7.30
2023-02-11T07:10:04.185Z,7.03
2023-02-11T07:12:32.254Z,7.88
2023-02-11T07:15:00.345Z,8.15
2023-02-11T07:17:28.000Z,7.85
2023-02-11T07:19:56.038Z,9.07
2023-02-11T07:22:23.912Z,11.48
2023-02-11T07:24:51.746Z,11.25
2023-02-11T07:27:19.898Z,9.73
2023-02-11T07:29:48.840Z,9.30
2023-02-11T07:32:17.100Z,8.52
2023-02-11T07:34:45.605Z,8.05
2023-02-11T07:37:13.325Z,9.18
2023-02-11T07:39:43.777Z,9.40
2023-02-11T07:42:11.656Z,10.00
2023-02-11T07:44:39.694Z,10.70
2023-02-11T07:47:07.719Z,10.20
2023-02-11T07:49:35.473Z,10.15
2023-02-11T07:52:03.282Z,9.48
2023-02-11T07:54:30.929Z,8.20
2023-02-11T07:56:59.066Z,9.52
2023-02-11T07:59:27.597Z,8.93
2023-02-11T08:01:55.487Z,9.50
2023-02-11T08:04:23.656Z,9.13
2023-02-11T08:06:52.928Z,9.10
2023-02-11T08:09:20.728Z,9.30
2023-02-11T08:11:48.348Z,8.75
2023-02-11T08:14:16.187Z,8.90
2023-02-11T08:16:44.442Z,8.85
2023-02-11T08:19:15.784Z,8.90
2023-02-11T08:21:44.294Z,8.82
2023-02-11T08:24:12.526Z,8.80
2023-02-11T08:26:40.552Z,9.45
2023-02-11T08:29:11.705Z,10.10
2023-02-11T08:31:42.665Z,12.55
2023-02-11T08:34:11.786Z,10.45
2023-02-11T08:36:42.294Z,10.60
2023-02-11T08:39:19.683Z,10.07
2023-02-11T08:41:57.279Z,9.52
2023-02-11T08:44:25.593Z,10.25
2023-02-11T08:46:54.037Z,8.88
2023-02-11T08:49:22.307Z,9.40
2023-02-11T08:51:51.086Z,8.63
2023-02-11T08:54:19.780Z,9.25
2023-02-11T08:56:51.633Z,9.85
2023-02-11T08:59:19.379Z,9.80
2023-02-11T09:01:48.035Z,9.63
2023-02-11T09:04:15.911Z,9.30
2023-02-11T09:06:44.010Z,9.18
2023-02-11T09:09:14.607Z,9.35
2023-02-11T09:11:44.151Z,10.05
2023-02-11T09:14:19.785Z,9.50
2023-02-11T09:16:48.500Z,8.65
2023-02-11T09:19:17.295Z,8.50
2023-02-11T09:21:45.127Z,8.30
2023-02-11T09:24:13.087Z,9.38
2023-02-11T09:26:43.438Z,8.95
2023-02-11T09:29:11.781Z,9.07
2023-02-11T09:31:39.981Z,9.25
2023-02-11T09:34:07.911Z,9.23
2023-02-11T09:36:43.529Z,9.45
2023-02-11T09:39:18.030Z,9.27
2023-02-11T09:42:10.121Z,10.80
2023-02-11T09:44:39.712Z,27.10
2023-02-11T09:47:13.514Z,25.88
2023-02-11T09:49:46.816Z,26.17
2023-02-11T09:52:40.260Z,17.20
2023-02-11T09:55:39.973Z,13.75
2023-02-11T09:58:22.935Z,12.80
2023-02-11T10:01:28.296Z,11.25
2023-02-11T10:04:14.152Z,12.70
2023-02-11T10:07:19.435Z,9.52
2023-02-11T10:10:00.536Z,7.53
2023-02-11T10:12:28.122Z,8.00
2023-02-11T10:15:02.074Z,10.15
2023-02-11T10:17:46.491Z,10.00
2023-02-11T10:20:31.348Z,10.63
2023-02-11T10:23:02.473Z,10.80
2023-02-11T10:25:45.456Z,10.15
2023-02-11T10:28:20.103Z,11.00
2023-02-11T10:31:16.032Z,8.35
2023-02-11T10:33:58.671Z,9.90
2023-02-11T10:36:34.250Z,11.55
2023-02-11T10:39:11.920Z,11.50
2023-02-11T10:41:45.937Z,11.85
2023-02-11T10:44:27.316Z,11.57
2023-02-11T10:46:56.620Z,14.05
2023-02-11T10:49:41.656Z,13.63
2023-02-11T10:52:21.672Z,11.95
2023-02-11T10:55:14.557Z,10.88
2023-02-11T10:57:50.146Z,10.82
2023-02-11T11:00:17.923Z,10.48
2023-02-11T11:02:52.541Z,10.93
2023-02-11T11:05:28.854Z,9.75
2023-02-11T11:08:03.052Z,11.18
2023-02-11T11:10:43.476Z,11.63
2023-02-11T11:13:23.630Z,11.75
2023-02-11T11:16:10.312Z,12.70
2023-02-11T11:18:39.294Z,11.90
2023-02-11T11:21:16.383Z,12.15
2023-02-11T11:24:02.674Z,11.95
2023-02-11T11:26:42.640Z,10.80
2023-02-11T11:29:21.956Z,11.27
2023-02-11T11:31:54.006Z,11.60
2023-02-11T11:34:38.880Z,17.52
2023-02-11T11:37:28.138Z,23.77
2023-02-11T11:40:04.972Z,24.95
2023-02-11T11:42:35.652Z,25.60
2023-02-11T11:45:24.850Z,24.25
2023-02-11T11:48:34.585Z,23.35
2023-02-11T11:51:06.350Z,23.50
2023-02-11T11:54:01.844Z,23.67
2023-02-11T11:56:34.141Z,23.33
2023-02-11T11:59:11.022Z,22.23
2023-02-11T12:01:50.141Z,21.23
2023-02-11T12:04:49.150Z,19.38
2023-02-11T12:07:29.755Z,18.45
2023-02-11T12:10:16.575Z,18.23
2023-02-11T12:12:53.552Z,17.00
2023-02-11T12:15:24.115Z,16.73
2023-02-11T12:20:15.282Z,14.88
2023-02-11T12:22:55.120Z,16.85
2023-02-11T12:25:28.390Z,16.23
2023-02-11T12:28:20.480Z,16.42
2023-02-11T12:31:15.784Z,14.38
2023-02-11T12:34:02.221Z,15.85
2023-02-11T12:36:41.223Z,15.80
2023-02-11T12:39:38.441Z,16.27
2023-02-11T12:42:41.167Z,15.95
2023-02-11T12:45:12.184Z,17.83
2023-02-11T12:48:17.533Z,16.85
2023-02-11T12:51:03.991Z,16.05
2023-02-11T12:54:09.536Z,15.70
2023-02-11T12:56:40.423Z,17.63
2023-02-11T12:59:17.883Z,15.65
2023-02-11T13:01:47.971Z,14.85
2023-02-11T13:04:25.143Z,14.07
2023-02-11T13:06:59.194Z,15.15
2023-02-11T13:09:38.756Z,15.40
2023-02-11T13:12:26.445Z,16.02
2023-02-11T13:15:00.534Z,16.20
2023-02-11T13:17:39.096Z,17.45
2023-02-11T13:20:37.196Z,18.30
2023-02-11T13:23:29.974Z,19.50
2023-02-11T13:26:17.032Z,19.75
2023-02-11T13:29:17.208Z,19.55
2023-02-11T13:31:57.558Z,19.15
2023-02-11T13:34:45.762Z,18.52
2023-02-11T13:37:29.939Z,16.33
2023-02-11T13:39:58.037Z,17.42
2023-02-11T13:42:27.306Z,16.38
2023-02-11T13:44:56.621Z,17.20
2023-02-11T13:47:37.455Z,16.48
2023-02-11T13:50:10.830Z,17.95
2023-02-11T13:52:39.789Z,17.88
2023-02-11T13:55:24.457Z,19.85
2023-02-11T13:58:14.118Z,17.88
2023-02-11T14:00:51.496Z,16.85
2023-02-11T14:03:57.930Z,17.60
2023-02-11T14:06:47.361Z,16.25
2023-02-11T14:09:17.494Z,16.75
2023-02-11T14:11:52.698Z,15.45
2023-02-11T14:14:31.490Z,14.67
2023-02-11T14:17:00.927Z,14.40
2023-02-11T14:19:39.214Z,13.93
2023-02-11T14:22:20.197Z,11.90
2023-02-11T14:24:55.059Z,12.07
2023-02-11T14:27:23.718Z,11.75
2023-02-11T14:30:01.845Z,11.43
2023-02-11T14:32:50.340Z,12.27
2023-02-11T14:38:23.251Z,11.93
2023-02-11T14:41:09.815Z,12.73
2023-02-11T14:43:47.540Z,12.15
2023-02-11T14:46:23.219Z,11.63
2023-02-11T14:48:55.460Z,11.38
2023-02-11T14:51:31.442Z,11.73
2023-02-11T14:54:04.990Z,12.18
2023-02-11T14:56:34.746Z,11.23
2023-02-11T14:59:03.810Z,16.65
2023-02-11T15:01:32.752Z,18.42
2023-02-11T15:04:07.671Z,17.27
2023-02-11T15:06:42.477Z,17.63
2023-02-11T15:09:18.807Z,17.77
2023-02-11T15:11:51.738Z,16.65
2023-02-11T15:14:35.734Z,16.08
2023-02-11T15:17:09.226Z,15.07
2023-02-11T15:19:41.883Z,15.05
2023-02-11T15:22:20.398Z,14.00
2023-02-11T15:25:11.652Z,13.38
2023-02-11T15:27:45.173Z,13.32
2023-02-11T15:30:24.002Z,12.52
2023-02-11T15:33:01.098Z,12.07
2023-02-11T15:35:32.780Z,10.95
2023-02-11T15:38:01.719Z,10.95
2023-02-11T15:40:35.329Z,10.63
2023-02-11T15:43:10.132Z,11.50
2023-02-11T15:45:55.253Z,14.93
2023-02-11T15:48:27.220Z,14.63
2023-02-11T15:50:59.491Z,14.13
2023-02-11T15:53:37.678Z,13.02
2023-02-11T15:56:30.689Z,13.02
2023-02-11T15:59:01.397Z,11.55
2023-02-11T16:01:38.163Z,10.13
2023-02-11T16:04:06.652Z,8.32
2023-02-11T16:06:47.652Z,7.75
2023-02-11T16:09:15.694Z,6.38
2023-02-11T16:11:46.716Z,6.03
2023-02-11T16:14:29.596Z,5.70
2023-02-11T16:17:02.766Z,5.35
2023-02-11T16:19:33.547Z,4.90
2023-02-11T16:22:08.471Z,4.22
2023-02-11T16:24:38.948Z,4.20
2023-02-11T16:27:18.309Z,4.10
2023-02-11T16:29:48.850Z,4.07
2023-02-11T16:32:18.470Z,4.18
2023-02-11T16:34:47.133Z,3.95
2023-02-11T16:37:15.203Z,3.75
2023-02-11T16:39:43.539Z,4.07
2023-02-11T16:42:12.583Z,4.18
2023-02-11T16:44:40.664Z,4.10
2023-02-11T16:47:23.748Z,4.65
2023-02-11T16:49:52.008Z,4.63
2023-02-11T16:52:22.817Z,4.05
2023-02-11T16:54:51.192Z,3.90
2023-02-11T16:57:22.298Z,3.88
2023-02-11T16:59:50.785Z,3.92
2023-02-11T17:02:30.652Z,4.05
2023-02-11T17:05:01.297Z,3.70
2023-02-11T17:07:29.865Z,4.10
2023-02-11T17:09:58.987Z,4.22
2023-02-11T17:12:27.128Z,3.97
2023-02-11T17:14:59.225Z,4.20
2023-02-11T17:17:26.989Z,3.53
2023-02-11T17:19:56.146Z,3.47
2023-02-11T17:22:23.978Z,3.95
2023-02-11T17:24:51.830Z,3.20
2023-02-11T17:27:20.335Z,3.33
2023-02-11T17:29:48.159Z,3.42
2023-02-11T17:32:16.074Z,3.25
2023-02-11T17:34:44.048Z,3.22
2023-02-11T17:37:11.976Z,3.40
2023-02-11T17:39:42.737Z,3.75
2023-02-11T17:42:11.995Z,2.80
2023-02-11T17:44:39.767Z,3.22
2023-02-11T17:47:08.073Z,2.80
2023-02-11T17:49:36.445Z,3.25
2023-02-11T17:52:04.509Z,3.15
2023-02-11T17:54:34.539Z,3.15
2023-02-11T17:57:02.995Z,3.13
2023-02-11T17:59:35.617Z,3.13
2023-02-11T18:02:04.572Z,2.50
2023-02-11T18:04:33.028Z,3.10
2023-02-11T18:07:00.986Z,3.10
2023-02-11T18:09:28.876Z,3.13
2023-02-11T18:11:58.518Z,3.80
2023-02-11T18:14:26.760Z,3.42
2023-02-11T18:16:55.065Z,3.33
2023-02-11T18:19:23.209Z,3.22
2023-02-11T18:21:51.673Z,3.83
2023-02-11T18:24:19.546Z,5.05
2023-02-11T18:26:47.510Z,6.57
2023-02-11T18:29:15.476Z,5.38
2023-02-11T18:31:43.547Z,5.85
2023-02-11T18:34:12.234Z,6.28
2023-02-11T18:36:40.107Z,5.40
2023-02-11T18:39:07.960Z,4.60
2023-02-11T18:41:36.044Z,4.80
2023-02-11T18:44:05.194Z,5.10
2023-02-11T18:46:33.185Z,4.78
2023-02-11T18:49:01.437Z,4.93
2023-02-11T18:51:31.980Z,4.50
2023-02-11T18:54:00.035Z,4.40
2023-02-11T18:56:28.188Z,5.07
2023-02-11T18:58:57.333Z,5.30
2023-02-11T19:01:27.596Z,6.10
2023-02-11T19:03:57.789Z,5.93
2023-02-11T19:06:28.210Z,5.93
2023-02-11T19:08:59.973Z,5.85
2023-02-11T19:11:48.909Z,5.93
2023-02-11T19:14:20.196Z,6.63
2023-02-11T19:16:50.769Z,6.60
2023-02-11T19:19:19.303Z,6.55
2023-02-11T19:21:47.704Z,6.40
2023-02-11T19:24:19.010Z,5.90
2023-02-11T19:26:48.126Z,6.38
2023-02-11T19:29:16.742Z,6.40
2023-02-11T19:31:45.042Z,6.57
2023-02-11T19:34:16.344Z,6.22
2023-02-11T19:36:44.417Z,6.85
2023-02-11T19:39:13.022Z,7.00
2023-02-11T19:41:41.030Z,6.97
2023-02-11T19:44:09.745Z,6.75
2023-02-11T19:46:41.117Z,7.05
2023-02-11T19:49:11.289Z,6.68
2023-02-11T19:51:39.723Z,6.82
2023-02-11T19:54:08.062Z,7.30
2023-02-11T19:56:38.054Z,7.38
2023-02-11T19:59:08.927Z,8.23
2023-02-11T20:01:37.283Z,7.22
2023-02-11T20:04:05.407Z,7.70
2023-02-11T20:06:34.590Z,7.68
2023-02-11T20:09:06.892Z,7.32
2023-02-11T20:11:37.503Z,13.15
2023-02-11T20:14:06.938Z,24.45
2023-02-11T20:16:47.379Z,36.25
2023-02-11T20:19:22.215Z,30.83
2023-02-11T20:21:53.827Z,24.85
2023-02-11T20:24:23.769Z,18.77
2023-02-11T20:26:56.069Z,15.05
2023-02-11T20:29:25.848Z,11.95
2023-02-11T20:31:54.419Z,10.75
2023-02-11T20:34:22.586Z,9.52
2023-02-11T20:36:53.676Z,10.00
2023-02-11T20:39:23.955Z,10.88
2023-02-11T20:41:54.255Z,10.82
2023-02-11T20:44:23.567Z,9.60
2023-02-11T20:46:54.590Z,9.65
2023-02-11T20:49:25.031Z,10.15
2023-02-11T20:51:54.095Z,9.25
2023-02-11T20:54:23.955Z,8.60
2023-02-11T20:56:53.866Z,8.80
2023-02-11T20:59:22.271Z,8.52
2023-02-11T21:01:55.732Z,9.18
2023-02-11T21:04:26.720Z,9.40
2023-02-11T21:06:57.997Z,9.77
2023-02-11T21:09:29.075Z,9.70
2023-02-11T21:11:57.431Z,11.00
2023-02-11T21:14:26.332Z,9.15
2023-02-11T21:16:54.293Z,9.40
2023-02-11T21:19:22.088Z,8.52
2023-02-11T21:21:50.161Z,8.82
2023-02-11T21:24:18.391Z,8.80
2023-02-11T21:26:46.464Z,10.68
2023-02-11T21:29:14.548Z,10.55
2023-02-11T21:31:42.879Z,11.95
2023-02-11T21:34:10.999Z,11.70
2023-02-11T21:36:38.759Z,11.73
2023-02-11T21:39:07.153Z,12.75
2023-02-11T21:41:35.397Z,12.52
2023-02-11T21:44:03.250Z,13.65
2023-02-11T21:46:32.139Z,13.30
2023-02-11T21:49:00.627Z,14.27
2023-02-11T21:51:28.889Z,14.27
2023-02-11T21:54:03.047Z,13.27
2023-02-11T21:56:32.380Z,14.00
2023-02-11T21:59:01.126Z,14.82
2023-02-11T22:01:31.935Z,14.52
2023-02-11T22:04:00.344Z,14.23
2023-02-11T22:06:31.357Z,14.93
2023-02-11T22:09:02.520Z,15.35
2023-02-11T22:11:30.465Z,14.50
2023-02-11T22:13:59.271Z,14.07
2023-02-11T22:16:28.673Z,15.07
2023-02-11T22:18:59.278Z,14.13
2023-02-11T22:21:29.671Z,13.52
2023-02-11T22:23:57.563Z,13.73
2023-02-11T22:26:27.943Z,14.25
2023-02-11T22:28:56.543Z,13.45
2023-02-11T22:31:28.481Z,13.65
2023-02-11T22:33:56.479Z,13.45
2023-02-11T22:36:29.755Z,13.77
2023-02-11T22:39:01.930Z,13.18
2023-02-11T22:41:30.246Z,12.80
2023-02-11T22:43:58.374Z,13.00
2023-02-11T22:46:27.014Z,13.98
2023-02-11T22:48:55.090Z,13.45
2023-02-11T22:51:26.370Z,13.38
2023-02-11T22:54:05.644Z,12.63
2023-02-11T22:56:35.167Z,12.82
2023-02-11T22:59:06.243Z,12.25
2023-02-11T23:01:34.459Z,11.73
2023-02-11T23:04:04.590Z,11.82
2023-02-11T23:06:33.241Z,12.18
2023-02-11T23:09:02.869Z,11.65
2023-02-11T23:11:31.716Z,15.43
2023-02-11T23:14:00.737Z,14.65
2023-02-11T23:16:31.663Z,15.73
2023-02-11T23:19:01.862Z,14.40
2023-02-11T23:21:31.385Z,12.75
2023-02-11T23:24:14.449Z,11.95
2023-02-11T23:26:43.530Z,10.57
2023-02-11T23:29:11.672Z,10.95
2023-02-11T23:31:43.533Z,10.75
2023-02-11T23:34:11.998Z,9.68
2023-02-11T23:36:39.762Z,10.15
2023-02-11T23:39:07.662Z,10.10
2023-02-11T23:41:35.687Z,10.57
2023-02-11T23:44:03.649Z,9.90
2023-02-11T23:46:31.494Z,9.90
2023-02-11T23:48:59.421Z,9.52
2023-02-11T23:51:27.238Z,8.90
2023-02-11T23:53:56.303Z,9.85
2023-02-11T23:56:27.666Z,9.95
2023-02-11T23:58:59.061Z,9.80
